sensor_id;sensor_type;location;lat;lon;timestamp;temperature;humidity
64062;DHT22;50308;47.438;-1.528;2023-04-19T00:00:38;9.50;94.40
64062;DHT22;50308;47.438;-1.528;2023-04-19T00:05:30;9.60;94.70
64062;DHT22;50308;47.438;-1.528;2023-04-19T00:07:56;9.50;94.50
64062;DHT22;50308;47.438;-1.528;2023-04-19T00:10:22;9.50;94.80
64062;DHT22;50308;47.438;-1.528;2023-04-19T00:12:47;9.40;94.50
64062;DHT22;50308;47.438;-1.528;2023-04-19T00:15:13;9.50;94.50
64062;DHT22;50308;47.438;-1.528;2023-04-19T00:17:39;9.40;94.70
64062;DHT22;50308;47.438;-1.528;2023-04-19T00:20:05;9.60;94.60
64062;DHT22;50308;47.438;-1.528;2023-04-19T00:22:31;9.60;94.70
64062;DHT22;50308;47.438;-1.528;2023-04-19T00:24:56;9.40;94.70
64062;DHT22;50308;47.438;-1.528;2023-04-19T00:27:22;9.50;94.20
64062;DHT22;50308;47.438;-1.528;2023-04-19T00:29:48;9.60;94.10
64062;DHT22;50308;47.438;-1.528;2023-04-19T00:32:14;9.50;94.40
64062;DHT22;50308;47.438;-1.528;2023-04-19T00:34:40;9.60;94.20
64062;DHT22;50308;47.438;-1.528;2023-04-19T00:37:07;9.60;94.10
64062;DHT22;50308;47.438;-1.528;2023-04-19T00:39:33;9.70;94.10
64062;DHT22;50308;47.438;-1.528;2023-04-19T00:41:58;9.60;94.30
64062;DHT22;50308;47.438;-1.528;2023-04-19T00:44:24;9.50;94.40
64062;DHT22;50308;47.438;-1.528;2023-04-19T00:46:50;9.60;94.50
64062;DHT22;50308;47.438;-1.528;2023-04-19T00:49:17;9.50;94.40
64062;DHT22;50308;47.438;-1.528;2023-04-19T00:51:45;9.40;94.20
64062;DHT22;50308;47.438;-1.528;2023-04-19T00:54:12;9.40;94.50
64062;DHT22;50308;47.438;-1.528;2023-04-19T00:56:38;9.40;94.30
64062;DHT22;50308;47.438;-1.528;2023-04-19T00:59:04;9.30;94.40
64062;DHT22;50308;47.438;-1.528;2023-04-19T01:01:30;9.30;94.30
64062;DHT22;50308;47.438;-1.528;2023-04-19T01:03:56;9.20;95.00
64062;DHT22;50308;47.438;-1.528;2023-04-19T01:06:22;9.30;94.60
64062;DHT22;50308;47.438;-1.528;2023-04-19T01:08:48;9.30;95.00
64062;DHT22;50308;47.438;-1.528;2023-04-19T01:11:13;9.30;94.40
64062;DHT22;50308;47.438;-1.528;2023-04-19T01:13:39;9.40;94.30
64062;DHT22;50308;47.438;-1.528;2023-04-19T01:16:06;9.20;94.10
64062;DHT22;50308;47.438;-1.528;2023-04-19T01:18:31;9.10;94.60
64062;DHT22;50308;47.438;-1.528;2023-04-19T01:21:02;9.10;95.00
64062;DHT22;50308;47.438;-1.528;2023-04-19T01:23:28;9.20;94.70
64062;DHT22;50308;47.438;-1.528;2023-04-19T01:25:54;9.10;94.50
64062;DHT22;50308;47.438;-1.528;2023-04-19T01:28:20;9.10;94.90
64062;DHT22;50308;47.438;-1.528;2023-04-19T01:30:46;9.20;94.80
64062;DHT22;50308;47.438;-1.528;2023-04-19T01:33:15;9.10;94.60
64062;DHT22;50308;47.438;-1.528;2023-04-19T01:35:41;9.10;95.10
64062;DHT22;50308;47.438;-1.528;2023-04-19T01:38:07;9.10;95.10
64062;DHT22;50308;47.438;-1.528;2023-04-19T01:40:32;9.10;94.70
64062;DHT22;50308;47.438;-1.528;2023-04-19T01:42:58;9.30;94.60
64062;DHT22;50308;47.438;-1.528;2023-04-19T01:45:24;9.30;94.40
64062;DHT22;50308;47.438;-1.528;2023-04-19T01:47:50;9.20;94.30
64062;DHT22;50308;47.438;-1.528;2023-04-19T01:50:16;9.00;94.50
64062;DHT22;50308;47.438;-1.528;2023-04-19T01:52:42;9.30;94.90
64062;DHT22;50308;47.438;-1.528;2023-04-19T01:55:08;9.40;94.40
64062;DHT22;50308;47.438;-1.528;2023-04-19T01:57:33;9.30;94.40
64062;DHT22;50308;47.438;-1.528;2023-04-19T02:00:00;9.20;94.10
64062;DHT22;50308;47.438;-1.528;2023-04-19T02:02:26;9.20;94.50
64062;DHT22;50308;47.438;-1.528;2023-04-19T02:04:52;9.10;94.60
64062;DHT22;50308;47.438;-1.528;2023-04-19T02:07:17;9.00;94.60
64062;DHT22;50308;47.438;-1.528;2023-04-19T02:09:43;9.00;94.70
64062;DHT22;50308;47.438;-1.528;2023-04-19T02:12:09;8.90;94.80
64062;DHT22;50308;47.438;-1.528;2023-04-19T02:14:34;8.90;94.80
64062;DHT22;50308;47.438;-1.528;2023-04-19T02:17:00;9.00;94.90
64062;DHT22;50308;47.438;-1.528;2023-04-19T02:19:26;9.00;95.20
64062;DHT22;50308;47.438;-1.528;2023-04-19T02:21:51;8.90;95.10
64062;DHT22;50308;47.438;-1.528;2023-04-19T02:24:22;8.80;95.10
64062;DHT22;50308;47.438;-1.528;2023-04-19T02:26:49;8.70;95.20
64062;DHT22;50308;47.438;-1.528;2023-04-19T02:29:14;8.70;95.70
64062;DHT22;50308;47.438;-1.528;2023-04-19T02:31:44;8.60;95.60
64062;DHT22;50308;47.438;-1.528;2023-04-19T02:34:11;8.60;95.30
64062;DHT22;50308;47.438;-1.528;2023-04-19T02:36:36;8.50;95.30
64062;DHT22;50308;47.438;-1.528;2023-04-19T02:39:02;8.50;95.60
64062;DHT22;50308;47.438;-1.528;2023-04-19T02:41:30;8.50;95.70
64062;DHT22;50308;47.438;-1.528;2023-04-19T02:43:55;8.60;95.80
64062;DHT22;50308;47.438;-1.528;2023-04-19T02:46:21;8.50;95.40
64062;DHT22;50308;47.438;-1.528;2023-04-19T02:48:47;8.60;95.70
64062;DHT22;50308;47.438;-1.528;2023-04-19T02:51:16;8.50;95.60
64062;DHT22;50308;47.438;-1.528;2023-04-19T02:53:42;8.40;95.60
64062;DHT22;50308;47.438;-1.528;2023-04-19T02:56:08;8.30;95.90
64062;DHT22;50308;47.438;-1.528;2023-04-19T02:58:34;8.40;95.90
64062;DHT22;50308;47.438;-1.528;2023-04-19T03:00:59;8.30;95.90
64062;DHT22;50308;47.438;-1.528;2023-04-19T03:03:25;8.30;95.80
64062;DHT22;50308;47.438;-1.528;2023-04-19T03:05:51;8.50;95.80
64062;DHT22;50308;47.438;-1.528;2023-04-19T03:08:17;8.30;95.80
64062;DHT22;50308;47.438;-1.528;2023-04-19T03:10:43;8.30;95.90
64062;DHT22;50308;47.438;-1.528;2023-04-19T03:13:08;8.30;95.80
64062;DHT22;50308;47.438;-1.528;2023-04-19T03:15:35;8.30;96.00
64062;DHT22;50308;47.438;-1.528;2023-04-19T03:18:00;8.30;96.10
64062;DHT22;50308;47.438;-1.528;2023-04-19T03:20:26;8.30;96.20
64062;DHT22;50308;47.438;-1.528;2023-04-19T03:22:52;8.20;95.90
64062;DHT22;50308;47.438;-1.528;2023-04-19T03:25:17;8.10;95.80
64062;DHT22;50308;47.438;-1.528;2023-04-19T03:27:43;8.20;96.30
64062;DHT22;50308;47.438;-1.528;2023-04-19T03:30:11;8.20;96.20
64062;DHT22;50308;47.438;-1.528;2023-04-19T03:32:37;8.30;96.10
64062;DHT22;50308;47.438;-1.528;2023-04-19T03:35:03;8.20;96.20
64062;DHT22;50308;47.438;-1.528;2023-04-19T03:37:28;8.30;96.40
64062;DHT22;50308;47.438;-1.528;2023-04-19T03:39:54;8.20;96.20
64062;DHT22;50308;47.438;-1.528;2023-04-19T03:42:19;8.10;96.60
64062;DHT22;50308;47.438;-1.528;2023-04-19T03:44:45;8.30;96.80
64062;DHT22;50308;47.438;-1.528;2023-04-19T03:47:11;8.20;95.80
64062;DHT22;50308;47.438;-1.528;2023-04-19T03:49:36;8.20;96.30
64062;DHT22;50308;47.438;-1.528;2023-04-19T03:52:02;8.10;96.40
64062;DHT22;50308;47.438;-1.528;2023-04-19T03:54:28;8.10;96.60
64062;DHT22;50308;47.438;-1.528;2023-04-19T03:56:53;8.50;96.30
64062;DHT22;50308;47.438;-1.528;2023-04-19T03:59:19;9.20;93.90
64062;DHT22;50308;47.438;-1.528;2023-04-19T04:01:45;9.50;92.70
64062;DHT22;50308;47.438;-1.528;2023-04-19T04:04:10;9.70;92.00
64062;DHT22;50308;47.438;-1.528;2023-04-19T04:06:36;9.70;91.50
64062;DHT22;50308;47.438;-1.528;2023-04-19T04:09:03;9.80;91.40
64062;DHT22;50308;47.438;-1.528;2023-04-19T04:11:28;9.90;91.00
64062;DHT22;50308;47.438;-1.528;2023-04-19T04:13:57;9.90;90.90
64062;DHT22;50308;47.438;-1.528;2023-04-19T04:16:23;9.90;90.80
64062;DHT22;50308;47.438;-1.528;2023-04-19T04:18:48;10.00;90.60
64062;DHT22;50308;47.438;-1.528;2023-04-19T04:21:14;10.00;90.60
64062;DHT22;50308;47.438;-1.528;2023-04-19T04:23:40;10.00;90.50
64062;DHT22;50308;47.438;-1.528;2023-04-19T04:26:06;10.00;90.40
64062;DHT22;50308;47.438;-1.528;2023-04-19T04:28:34;10.00;90.40
64062;DHT22;50308;47.438;-1.528;2023-04-19T04:31:00;10.00;90.30
64062;DHT22;50308;47.438;-1.528;2023-04-19T04:33:28;10.10;90.20
64062;DHT22;50308;47.438;-1.528;2023-04-19T04:35:55;10.00;90.20
64062;DHT22;50308;47.438;-1.528;2023-04-19T04:38:22;10.10;90.10
64062;DHT22;50308;47.438;-1.528;2023-04-19T04:40:51;10.00;90.00
64062;DHT22;50308;47.438;-1.528;2023-04-19T04:43:24;10.00;89.90
64062;DHT22;50308;47.438;-1.528;2023-04-19T04:45:53;10.00;90.00
64062;DHT22;50308;47.438;-1.528;2023-04-19T04:48:20;10.00;89.60
64062;DHT22;50308;47.438;-1.528;2023-04-19T04:50:45;9.90;89.50
64062;DHT22;50308;47.438;-1.528;2023-04-19T04:53:11;9.90;89.30
64062;DHT22;50308;47.438;-1.528;2023-04-19T04:55:37;9.90;89.30
64062;DHT22;50308;47.438;-1.528;2023-04-19T04:58:03;9.80;89.20
64062;DHT22;50308;47.438;-1.528;2023-04-19T05:00:32;9.80;89.20
64062;DHT22;50308;47.438;-1.528;2023-04-19T05:02:58;9.70;89.50
64062;DHT22;50308;47.438;-1.528;2023-04-19T05:05:24;8.90;90.10
64062;DHT22;50308;47.438;-1.528;2023-04-19T05:07:50;8.60;91.10
64062;DHT22;50308;47.438;-1.528;2023-04-19T05:10:16;8.20;91.80
64062;DHT22;50308;47.438;-1.528;2023-04-19T05:12:41;7.90;92.60
64062;DHT22;50308;47.438;-1.528;2023-04-19T05:15:07;7.80;92.90
64062;DHT22;50308;47.438;-1.528;2023-04-19T05:17:33;7.80;93.00
64062;DHT22;50308;47.438;-1.528;2023-04-19T05:19:59;7.80;93.50
64062;DHT22;50308;47.438;-1.528;2023-04-19T05:22:25;7.70;93.20
64062;DHT22;50308;47.438;-1.528;2023-04-19T05:24:51;7.60;93.30
64062;DHT22;50308;47.438;-1.528;2023-04-19T05:27:17;7.60;93.60
64062;DHT22;50308;47.438;-1.528;2023-04-19T05:29:42;7.50;93.30
64062;DHT22;50308;47.438;-1.528;2023-04-19T05:32:08;7.50;93.30
64062;DHT22;50308;47.438;-1.528;2023-04-19T05:34:35;7.50;93.70
64062;DHT22;50308;47.438;-1.528;2023-04-19T05:37:02;7.50;93.60
64062;DHT22;50308;47.438;-1.528;2023-04-19T05:39:28;7.50;94.10
64062;DHT22;50308;47.438;-1.528;2023-04-19T05:41:53;7.50;93.90
64062;DHT22;50308;47.438;-1.528;2023-04-19T05:44:19;7.60;94.10
64062;DHT22;50308;47.438;-1.528;2023-04-19T05:46:45;7.60;93.70
64062;DHT22;50308;47.438;-1.528;2023-04-19T05:49:11;7.50;93.90
64062;DHT22;50308;47.438;-1.528;2023-04-19T05:51:36;7.50;93.80
64062;DHT22;50308;47.438;-1.528;2023-04-19T05:54:02;7.50;94.00
64062;DHT22;50308;47.438;-1.528;2023-04-19T05:56:28;7.60;94.40
64062;DHT22;50308;47.438;-1.528;2023-04-19T05:58:54;7.60;94.40
64062;DHT22;50308;47.438;-1.528;2023-04-19T06:01:24;7.70;94.40
64062;DHT22;50308;47.438;-1.528;2023-04-19T06:03:50;7.80;94.70
64062;DHT22;50308;47.438;-1.528;2023-04-19T06:06:18;7.90;94.20
64062;DHT22;50308;47.438;-1.528;2023-04-19T06:08:44;7.90;94.50
64062;DHT22;50308;47.438;-1.528;2023-04-19T06:11:10;8.00;94.50
64062;DHT22;50308;47.438;-1.528;2023-04-19T06:13:36;8.00;94.70
64062;DHT22;50308;47.438;-1.528;2023-04-19T06:16:02;8.20;94.90
64062;DHT22;50308;47.438;-1.528;2023-04-19T06:18:28;8.40;94.70
64062;DHT22;50308;47.438;-1.528;2023-04-19T06:20:53;8.50;94.60
64062;DHT22;50308;47.438;-1.528;2023-04-19T06:23:19;8.60;94.80
64062;DHT22;50308;47.438;-1.528;2023-04-19T06:25:45;8.70;94.80
64062;DHT22;50308;47.438;-1.528;2023-04-19T06:28:13;8.80;94.70
64062;DHT22;50308;47.438;-1.528;2023-04-19T06:30:39;8.90;94.70
64062;DHT22;50308;47.438;-1.528;2023-04-19T06:33:05;9.00;94.60
64062;DHT22;50308;47.438;-1.528;2023-04-19T06:35:31;9.20;94.60
64062;DHT22;50308;47.438;-1.528;2023-04-19T06:37:58;9.40;94.20
64062;DHT22;50308;47.438;-1.528;2023-04-19T06:40:26;9.40;94.10
64062;DHT22;50308;47.438;-1.528;2023-04-19T06:42:53;9.60;94.00
64062;DHT22;50308;47.438;-1.528;2023-04-19T06:45:19;9.60;93.90
64062;DHT22;50308;47.438;-1.528;2023-04-19T06:47:44;9.80;93.80
64062;DHT22;50308;47.438;-1.528;2023-04-19T06:50:10;9.90;93.60
64062;DHT22;50308;47.438;-1.528;2023-04-19T06:52:36;10.00;93.30
64062;DHT22;50308;47.438;-1.528;2023-04-19T06:55:02;10.00;93.80
64062;DHT22;50308;47.438;-1.528;2023-04-19T06:57:28;10.10;93.30
64062;DHT22;50308;47.438;-1.528;2023-04-19T06:59:54;10.20;93.50
64062;DHT22;50308;47.438;-1.528;2023-04-19T07:02:20;10.30;93.20
64062;DHT22;50308;47.438;-1.528;2023-04-19T07:04:46;10.40;93.50
64062;DHT22;50308;47.438;-1.528;2023-04-19T07:07:12;10.40;93.20
64062;DHT22;50308;47.438;-1.528;2023-04-19T07:09:38;10.50;92.70
64062;DHT22;50308;47.438;-1.528;2023-04-19T07:12:05;10.70;92.50
64062;DHT22;50308;47.438;-1.528;2023-04-19T07:14:30;10.70;92.70
64062;DHT22;50308;47.438;-1.528;2023-04-19T07:16:56;10.80;92.40
64062;DHT22;50308;47.438;-1.528;2023-04-19T07:19:22;10.90;92.20
64062;DHT22;50308;47.438;-1.528;2023-04-19T07:21:48;10.90;92.10
64062;DHT22;50308;47.438;-1.528;2023-04-19T07:24:14;10.90;92.30
64062;DHT22;50308;47.438;-1.528;2023-04-19T07:26:40;11.00;92.50
64062;DHT22;50308;47.438;-1.528;2023-04-19T07:29:06;11.00;92.10
64062;DHT22;50308;47.438;-1.528;2023-04-19T07:31:31;11.10;92.10
64062;DHT22;50308;47.438;-1.528;2023-04-19T07:33:57;11.20;92.30
64062;DHT22;50308;47.438;-1.528;2023-04-19T07:36:23;11.20;92.40
64062;DHT22;50308;47.438;-1.528;2023-04-19T07:38:48;11.30;92.00
64062;DHT22;50308;47.438;-1.528;2023-04-19T07:41:14;11.40;92.00
64062;DHT22;50308;47.438;-1.528;2023-04-19T07:43:40;11.40;91.90
64062;DHT22;50308;47.438;-1.528;2023-04-19T07:46:13;11.50;92.00
64062;DHT22;50308;47.438;-1.528;2023-04-19T07:51:10;11.50;92.00
64062;DHT22;50308;47.438;-1.528;2023-04-19T07:53:38;11.60;91.20
64062;DHT22;50308;47.438;-1.528;2023-04-19T07:56:05;11.70;91.90
64062;DHT22;50308;47.438;-1.528;2023-04-19T07:58:31;11.70;91.50
64062;DHT22;50308;47.438;-1.528;2023-04-19T08:03:23;11.80;91.20
64062;DHT22;50308;47.438;-1.528;2023-04-19T08:05:49;11.90;90.80
64062;DHT22;50308;47.438;-1.528;2023-04-19T08:08:15;11.90;90.80
64062;DHT22;50308;47.438;-1.528;2023-04-19T08:10:41;11.90;90.60
64062;DHT22;50308;47.438;-1.528;2023-04-19T08:13:06;11.90;90.90
64062;DHT22;50308;47.438;-1.528;2023-04-19T08:15:34;12.00;91.00
64062;DHT22;50308;47.438;-1.528;2023-04-19T08:18:00;12.00;90.60
64062;DHT22;50308;47.438;-1.528;2023-04-19T08:20:26;12.00;91.10
64062;DHT22;50308;47.438;-1.528;2023-04-19T08:22:52;12.10;90.70
64062;DHT22;50308;47.438;-1.528;2023-04-19T08:25:18;12.20;90.90
64062;DHT22;50308;47.438;-1.528;2023-04-19T08:27:44;12.30;90.80
64062;DHT22;50308;47.438;-1.528;2023-04-19T08:30:10;12.20;90.50
64062;DHT22;50308;47.438;-1.528;2023-04-19T08:32:36;12.30;90.70
64062;DHT22;50308;47.438;-1.528;2023-04-19T08:35:01;12.30;90.40
64062;DHT22;50308;47.438;-1.528;2023-04-19T08:37:28;12.40;90.30
64062;DHT22;50308;47.438;-1.528;2023-04-19T08:39:54;12.50;90.60
64062;DHT22;50308;47.438;-1.528;2023-04-19T08:42:19;12.50;90.50
64062;DHT22;50308;47.438;-1.528;2023-04-19T08:44:45;12.50;90.10
64062;DHT22;50308;47.438;-1.528;2023-04-19T08:47:12;12.50;90.40
64062;DHT22;50308;47.438;-1.528;2023-04-19T08:49:40;12.60;90.10
64062;DHT22;50308;47.438;-1.528;2023-04-19T08:52:09;12.60;90.10
64062;DHT22;50308;47.438;-1.528;2023-04-19T08:54:37;12.70;89.10
64062;DHT22;50308;47.438;-1.528;2023-04-19T08:57:04;12.70;88.10
64062;DHT22;50308;47.438;-1.528;2023-04-19T08:59:30;12.70;88.80
64062;DHT22;50308;47.438;-1.528;2023-04-19T09:02:00;12.70;89.30
64062;DHT22;50308;47.438;-1.528;2023-04-19T09:04:26;12.80;89.80
64062;DHT22;50308;47.438;-1.528;2023-04-19T09:06:52;12.90;90.00
64062;DHT22;50308;47.438;-1.528;2023-04-19T09:09:25;12.90;89.50
64062;DHT22;50308;47.438;-1.528;2023-04-19T09:11:51;12.90;90.20
64062;DHT22;50308;47.438;-1.528;2023-04-19T09:14:18;13.00;88.60
64062;DHT22;50308;47.438;-1.528;2023-04-19T09:16:45;13.00;88.00
64062;DHT22;50308;47.438;-1.528;2023-04-19T09:19:10;13.00;86.60
64062;DHT22;50308;47.438;-1.528;2023-04-19T09:21:37;13.10;88.70
64062;DHT22;50308;47.438;-1.528;2023-04-19T09:24:04;13.10;88.70
64062;DHT22;50308;47.438;-1.528;2023-04-19T09:26:31;13.10;88.20
64062;DHT22;50308;47.438;-1.528;2023-04-19T09:29:06;13.10;88.60
64062;DHT22;50308;47.438;-1.528;2023-04-19T09:31:34;13.10;85.80
64062;DHT22;50308;47.438;-1.528;2023-04-19T09:34:14;13.10;85.10
64062;DHT22;50308;47.438;-1.528;2023-04-19T09:36:40;13.20;88.20
64062;DHT22;50308;47.438;-1.528;2023-04-19T09:39:07;13.20;85.60
64062;DHT22;50308;47.438;-1.528;2023-04-19T09:41:32;13.20;84.50
64062;DHT22;50308;47.438;-1.528;2023-04-19T09:44:11;13.10;83.70
64062;DHT22;50308;47.438;-1.528;2023-04-19T09:46:40;13.20;86.60
64062;DHT22;50308;47.438;-1.528;2023-04-19T09:51:41;13.30;86.00
64062;DHT22;50308;47.438;-1.528;2023-04-19T09:54:08;13.20;84.10
64062;DHT22;50308;47.438;-1.528;2023-04-19T09:56:35;13.30;84.90
64062;DHT22;50308;47.438;-1.528;2023-04-19T09:59:08;13.60;88.40
64062;DHT22;50308;47.438;-1.528;2023-04-19T10:01:58;13.40;83.00
64062;DHT22;50308;47.438;-1.528;2023-04-19T10:04:24;13.50;87.50
64062;DHT22;50308;47.438;-1.528;2023-04-19T10:06:52;13.50;87.80
64062;DHT22;50308;47.438;-1.528;2023-04-19T10:09:20;13.60;84.10
64062;DHT22;50308;47.438;-1.528;2023-04-19T10:11:50;13.60;83.50
64062;DHT22;50308;47.438;-1.528;2023-04-19T10:14:23;14.40;85.50
64062;DHT22;50308;47.438;-1.528;2023-04-19T10:17:03;14.90;82.10
64062;DHT22;50308;47.438;-1.528;2023-04-19T10:23:33;15.20;82.20
64062;DHT22;50308;47.438;-1.528;2023-04-19T10:26:12;14.70;80.80
64062;DHT22;50308;47.438;-1.528;2023-04-19T10:28:43;15.10;83.60
64062;DHT22;50308;47.438;-1.528;2023-04-19T10:31:25;15.70;82.30
64062;DHT22;50308;47.438;-1.528;2023-04-19T10:33:55;15.80;82.10
64062;DHT22;50308;47.438;-1.528;2023-04-19T10:36:37;15.90;80.50
64062;DHT22;50308;47.438;-1.528;2023-04-19T10:39:44;15.50;80.20
64062;DHT22;50308;47.438;-1.528;2023-04-19T10:42:13;15.30;81.20
64062;DHT22;50308;47.438;-1.528;2023-04-19T10:44:43;15.10;83.40
64062;DHT22;50308;47.438;-1.528;2023-04-19T10:47:43;15.90;83.90
64062;DHT22;50308;47.438;-1.528;2023-04-19T10:50:09;16.30;79.50
64062;DHT22;50308;47.438;-1.528;2023-04-19T10:52:35;16.30;80.50
64062;DHT22;50308;47.438;-1.528;2023-04-19T10:57:26;16.10;84.70
64062;DHT22;50308;47.438;-1.528;2023-04-19T11:00:17;16.50;79.20
64062;DHT22;50308;47.438;-1.528;2023-04-19T11:02:44;16.20;81.70
64062;DHT22;50308;47.438;-1.528;2023-04-19T11:05:10;16.50;80.30
64062;DHT22;50308;47.438;-1.528;2023-04-19T11:07:39;16.60;80.00
64062;DHT22;50308;47.438;-1.528;2023-04-19T11:10:06;16.50;77.10
64062;DHT22;50308;47.438;-1.528;2023-04-19T11:12:32;16.00;81.20
64062;DHT22;50308;47.438;-1.528;2023-04-19T11:14:58;15.90;81.60
64062;DHT22;50308;47.438;-1.528;2023-04-19T11:17:29;15.60;79.70
64062;DHT22;50308;47.438;-1.528;2023-04-19T11:19:58;15.90;82.30
64062;DHT22;50308;47.438;-1.528;2023-04-19T11:22:35;16.00;79.20
64062;DHT22;50308;47.438;-1.528;2023-04-19T11:25:20;15.60;80.70
64062;DHT22;50308;47.438;-1.528;2023-04-19T11:27:51;15.60;82.20
64062;DHT22;50308;47.438;-1.528;2023-04-19T11:30:29;16.10;80.90
64062;DHT22;50308;47.438;-1.528;2023-04-19T11:32:56;16.10;80.40
64062;DHT22;50308;47.438;-1.528;2023-04-19T11:35:24;16.20;78.80
64062;DHT22;50308;47.438;-1.528;2023-04-19T11:37:51;15.90;80.20
64062;DHT22;50308;47.438;-1.528;2023-04-19T11:40:19;16.10;78.10
64062;DHT22;50308;47.438;-1.528;2023-04-19T11:42:46;16.00;80.50
64062;DHT22;50308;47.438;-1.528;2023-04-19T11:45:33;16.50;80.20
64062;DHT22;50308;47.438;-1.528;2023-04-19T11:47:59;16.40;78.30
64062;DHT22;50308;47.438;-1.528;2023-04-19T11:50:38;16.50;77.30
64062;DHT22;50308;47.438;-1.528;2023-04-19T11:56:13;16.30;79.10
64062;DHT22;50308;47.438;-1.528;2023-04-19T11:58:44;16.20;79.00
64062;DHT22;50308;47.438;-1.528;2023-04-19T12:01:19;15.90;81.90
64062;DHT22;50308;47.438;-1.528;2023-04-19T12:03:49;16.00;80.10
64062;DHT22;50308;47.438;-1.528;2023-04-19T12:06:16;16.40;78.30
64062;DHT22;50308;47.438;-1.528;2023-04-19T12:08:45;17.00;77.80
64062;DHT22;50308;47.438;-1.528;2023-04-19T12:11:12;17.40;73.40
64062;DHT22;50308;47.438;-1.528;2023-04-19T12:13:38;17.00;75.80
64062;DHT22;50308;47.438;-1.528;2023-04-19T12:16:09;16.30;77.30
64062;DHT22;50308;47.438;-1.528;2023-04-19T12:18:48;15.80;79.40
64062;DHT22;50308;47.438;-1.528;2023-04-19T12:21:28;15.70;81.70
64062;DHT22;50308;47.438;-1.528;2023-04-19T12:23:57;15.70;80.20
64062;DHT22;50308;47.438;-1.528;2023-04-19T12:26:24;15.50;81.10
64062;DHT22;50308;47.438;-1.528;2023-04-19T12:28:50;15.40;81.60
64062;DHT22;50308;47.438;-1.528;2023-04-19T12:31:15;15.30;81.70
64062;DHT22;50308;47.438;-1.528;2023-04-19T12:33:42;15.50;82.90
64062;DHT22;50308;47.438;-1.528;2023-04-19T12:36:08;15.50;81.60
64062;DHT22;50308;47.438;-1.528;2023-04-19T12:38:33;15.60;82.30
64062;DHT22;50308;47.438;-1.528;2023-04-19T12:41:00;15.50;81.60
64062;DHT22;50308;47.438;-1.528;2023-04-19T12:43:25;15.40;82.50
64062;DHT22;50308;47.438;-1.528;2023-04-19T12:45:51;15.40;82.30
64062;DHT22;50308;47.438;-1.528;2023-04-19T12:48:17;15.40;83.00
64062;DHT22;50308;47.438;-1.528;2023-04-19T12:50:42;15.50;82.00
64062;DHT22;50308;47.438;-1.528;2023-04-19T12:53:08;15.70;81.90
64062;DHT22;50308;47.438;-1.528;2023-04-19T12:55:33;15.80;81.00
64062;DHT22;50308;47.438;-1.528;2023-04-19T12:57:59;15.60;81.40
64062;DHT22;50308;47.438;-1.528;2023-04-19T13:00:25;15.50;82.10
64062;DHT22;50308;47.438;-1.528;2023-04-19T13:02:51;15.80;81.20
64062;DHT22;50308;47.438;-1.528;2023-04-19T13:05:16;15.80;81.10
64062;DHT22;50308;47.438;-1.528;2023-04-19T13:07:42;15.90;81.50
64062;DHT22;50308;47.438;-1.528;2023-04-19T13:10:08;15.90;81.60
64062;DHT22;50308;47.438;-1.528;2023-04-19T13:12:35;15.60;81.60
64062;DHT22;50308;47.438;-1.528;2023-04-19T13:15:00;15.60;82.10
64062;DHT22;50308;47.438;-1.528;2023-04-19T13:17:26;15.50;82.50
64062;DHT22;50308;47.438;-1.528;2023-04-19T13:19:52;15.70;82.70
64062;DHT22;50308;47.438;-1.528;2023-04-19T13:22:18;15.60;81.70
64062;DHT22;50308;47.438;-1.528;2023-04-19T13:24:43;15.70;82.20
64062;DHT22;50308;47.438;-1.528;2023-04-19T13:27:09;16.00;82.00
64062;DHT22;50308;47.438;-1.528;2023-04-19T13:29:35;15.90;80.60
64062;DHT22;50308;47.438;-1.528;2023-04-19T13:32:01;15.60;81.60
64062;DHT22;50308;47.438;-1.528;2023-04-19T13:34:27;15.50;81.90
64062;DHT22;50308;47.438;-1.528;2023-04-19T13:36:53;15.70;82.00
64062;DHT22;50308;47.438;-1.528;2023-04-19T13:39:18;16.00;80.50
64062;DHT22;50308;47.438;-1.528;2023-04-19T13:41:44;15.90;80.80
64062;DHT22;50308;47.438;-1.528;2023-04-19T13:44:10;16.20;81.70
64062;DHT22;50308;47.438;-1.528;2023-04-19T13:46:36;16.00;79.80
64062;DHT22;50308;47.438;-1.528;2023-04-19T13:49:01;15.90;80.60
64062;DHT22;50308;47.438;-1.528;2023-04-19T13:51:27;15.90;81.20
64062;DHT22;50308;47.438;-1.528;2023-04-19T13:53:53;16.20;79.40
64062;DHT22;50308;47.438;-1.528;2023-04-19T13:56:20;16.10;79.90
64062;DHT22;50308;47.438;-1.528;2023-04-19T13:58:46;16.20;79.40
64062;DHT22;50308;47.438;-1.528;2023-04-19T14:03:43;15.90;80.60
64062;DHT22;50308;47.438;-1.528;2023-04-19T14:06:09;15.90;80.60
64062;DHT22;50308;47.438;-1.528;2023-04-19T14:08:34;16.30;79.10
64062;DHT22;50308;47.438;-1.528;2023-04-19T14:11:00;16.30;79.10
64062;DHT22;50308;47.438;-1.528;2023-04-19T14:13:26;16.20;79.50
64062;DHT22;50308;47.438;-1.528;2023-04-19T14:15:52;16.00;80.30
64062;DHT22;50308;47.438;-1.528;2023-04-19T14:18:17;15.90;80.40
64062;DHT22;50308;47.438;-1.528;2023-04-19T14:20:43;15.90;80.10
64062;DHT22;50308;47.438;-1.528;2023-04-19T14:23:09;15.80;80.70
64062;DHT22;50308;47.438;-1.528;2023-04-19T14:25:34;15.90;80.20
64062;DHT22;50308;47.438;-1.528;2023-04-19T14:28:01;16.10;79.30
64062;DHT22;50308;47.438;-1.528;2023-04-19T14:30:27;16.20;79.00
64062;DHT22;50308;47.438;-1.528;2023-04-19T14:32:52;16.20;79.10
64062;DHT22;50308;47.438;-1.528;2023-04-19T14:35:18;16.30;75.80
64062;DHT22;50308;47.438;-1.528;2023-04-19T14:37:44;16.30;77.80
64062;DHT22;50308;47.438;-1.528;2023-04-19T14:40:11;16.20;78.50
64062;DHT22;50308;47.438;-1.528;2023-04-19T14:42:36;16.10;78.50
64062;DHT22;50308;47.438;-1.528;2023-04-19T14:45:02;16.00;78.90
64062;DHT22;50308;47.438;-1.528;2023-04-19T14:47:28;16.00;78.90
64062;DHT22;50308;47.438;-1.528;2023-04-19T14:49:54;15.90;79.50
64062;DHT22;50308;47.438;-1.528;2023-04-19T14:52:20;15.90;80.00
64062;DHT22;50308;47.438;-1.528;2023-04-19T14:54:45;16.10;79.00
64062;DHT22;50308;47.438;-1.528;2023-04-19T14:57:12;16.10;79.70
64062;DHT22;50308;47.438;-1.528;2023-04-19T14:59:38;16.20;78.00
64062;DHT22;50308;47.438;-1.528;2023-04-19T15:02:04;16.20;78.70
64062;DHT22;50308;47.438;-1.528;2023-04-19T15:04:33;16.30;76.80
64062;DHT22;50308;47.438;-1.528;2023-04-19T15:06:59;16.40;77.40
64062;DHT22;50308;47.438;-1.528;2023-04-19T15:09:25;16.70;75.60
64062;DHT22;50308;47.438;-1.528;2023-04-19T15:11:51;17.10;72.70
64062;DHT22;50308;47.438;-1.528;2023-04-19T15:14:16;17.20;70.30
64062;DHT22;50308;47.438;-1.528;2023-04-19T15:16:42;17.60;68.00
64062;DHT22;50308;47.438;-1.528;2023-04-19T15:19:08;17.90;66.90
64062;DHT22;50308;47.438;-1.528;2023-04-19T15:21:33;17.70;68.60
64062;DHT22;50308;47.438;-1.528;2023-04-19T15:23:59;17.20;71.30
64062;DHT22;50308;47.438;-1.528;2023-04-19T15:26:25;16.80;73.20
64062;DHT22;50308;47.438;-1.528;2023-04-19T15:28:51;16.60;75.00
64062;DHT22;50308;47.438;-1.528;2023-04-19T15:31:18;16.50;74.90
64062;DHT22;50308;47.438;-1.528;2023-04-19T15:33:44;16.40;75.30
64062;DHT22;50308;47.438;-1.528;2023-04-19T15:36:10;16.40;75.70
64062;DHT22;50308;47.438;-1.528;2023-04-19T15:38:35;16.40;76.10
64062;DHT22;50308;47.438;-1.528;2023-04-19T15:41:01;16.40;75.60
64062;DHT22;50308;47.438;-1.528;2023-04-19T15:43:27;16.90;74.20